sensor_id;sensor_type;location;lat;lon;timestamp;P1;durP1;ratioP1;P2;durP2;ratioP2
79687;SDS011;69155;49.464;2.108;2024-01-15T01:09:30;19.90;;;10.30;;
79687;SDS011;69155;49.464;2.108;2024-01-15T01:11:55;27.25;;;12.30;;
79687;SDS011;69155;49.464;2.108;2024-01-15T01:14:40;25.05;;;11.18;;
79687;SDS011;69155;49.464;2.108;2024-01-15T01:17:08;26.17;;;11.57;;
79687;SDS011;69155;49.464;2.108;2024-01-15T01:22:41;21.58;;;10.68;;
79687;SDS011;69155;49.464;2.108;2024-01-15T01:25:07;27.00;;;12.48;;
79687;SDS011;69155;49.464;2.108;2024-01-15T01:27:37;23.50;;;11.45;;
79687;SDS011;69155;49.464;2.108;2024-01-15T01:30:08;20.50;;;10.32;;
79687;SDS011;69155;49.464;2.108;2024-01-15T01:35:07;19.90;;;9.88;;
79687;SDS011;69155;49.464;2.108;2024-01-15T01:37:32;19.63;;;9.20;;
79687;SDS011;69155;49.464;2.108;2024-01-15T01:39:59;24.40;;;11.57;;
79687;SDS011;69155;49.464;2.108;2024-01-15T01:42:27;21.47;;;10.50;;
79687;SDS011;69155;49.464;2.108;2024-01-15T01:44:56;31.88;;;12.35;;
79687;SDS011;69155;49.464;2.108;2024-01-15T01:53:23;24.52;;;10.90;;
79687;SDS011;69155;49.464;2.108;2024-01-15T01:56:25;17.25;;;8.75;;
79687;SDS011;69155;49.464;2.108;2024-01-15T01:59:19;24.83;;;10.90;;
79687;SDS011;69155;49.464;2.108;2024-01-15T02:05:18;21.00;;;9.13;;
79687;SDS011;69155;49.464;2.108;2024-01-15T02:08:22;19.40;;;9.15;;
79687;SDS011;69155;49.464;2.108;2024-01-15T02:11:07;21.23;;;9.63;;
79687;SDS011;69155;49.464;2.108;2024-01-15T02:32:28;15.95;;;8.85;;
79687;SDS011;69155;49.464;2.108;2024-01-15T02:44:01;26.70;;;10.88;;
79687;SDS011;69155;49.464;2.108;2024-01-15T02:47:01;20.08;;;9.95;;
79687;SDS011;69155;49.464;2.108;2024-01-15T02:50:06;29.08;;;11.77;;
79687;SDS011;69155;49.464;2.108;2024-01-15T02:52:53;25.95;;;10.05;;
79687;SDS011;69155;49.464;2.108;2024-01-15T02:55:54;25.65;;;11.70;;
79687;SDS011;69155;49.464;2.108;2024-01-15T02:58:24;25.13;;;10.68;;
79687;SDS011;69155;49.464;2.108;2024-01-15T03:10:31;25.67;;;10.50;;
79687;SDS011;69155;49.464;2.108;2024-01-15T03:22:40;25.27;;;10.50;;
79687;SDS011;69155;49.464;2.108;2024-01-15T03:25:17;18.90;;;9.70;;
79687;SDS011;69155;49.464;2.108;2024-01-15T03:31:16;22.15;;;9.40;;
79687;SDS011;69155;49.464;2.108;2024-01-15T03:43:18;19.52;;;9.70;;
79687;SDS011;69155;49.464;2.108;2024-01-15T03:46:20;22.83;;;10.98;;
79687;SDS011;69155;49.464;2.108;2024-01-15T04:01:22;27.23;;;10.30;;
79687;SDS011;69155;49.464;2.108;2024-01-15T04:04:08;28.35;;;12.25;;
79687;SDS011;69155;49.464;2.108;2024-01-15T04:12:49;30.17;;;11.60;;
79687;SDS011;69155;49.464;2.108;2024-01-15T04:15:33;23.55;;;12.35;;
79687;SDS011;69155;49.464;2.108;2024-01-15T04:18:23;26.13;;;11.57;;
79687;SDS011;69155;49.464;2.108;2024-01-15T04:26:53;25.73;;;11.63;;
79687;SDS011;69155;49.464;2.108;2024-01-15T04:32:26;23.05;;;10.27;;
79687;SDS011;69155;49.464;2.108;2024-01-15T04:35:25;24.95;;;11.02;;
79687;SDS011;69155;49.464;2.108;2024-01-15T04:38:21;25.27;;;12.13;;
79687;SDS011;69155;49.464;2.108;2024-01-15T04:44:17;24.25;;;11.85;;
79687;SDS011;69155;49.464;2.108;2024-01-15T04:46:55;18.70;;;10.38;;
79687;SDS011;69155;49.464;2.108;2024-01-15T04:55:23;27.05;;;11.15;;
79687;SDS011;69155;49.464;2.108;2024-01-15T04:58:19;23.48;;;9.57;;
79687;SDS011;69155;49.464;2.108;2024-01-15T05:00:52;28.00;;;12.60;;
79687;SDS011;69155;49.464;2.108;2024-01-15T05:27:48;22.42;;;10.60;;
79687;SDS011;69155;49.464;2.108;2024-01-15T05:30:42;24.95;;;10.07;;
79687;SDS011;69155;49.464;2.108;2024-01-15T05:36:36;26.42;;;11.00;;
79687;SDS011;69155;49.464;2.108;2024-01-15T05:51:07;26.90;;;11.10;;
79687;SDS011;69155;49.464;2.108;2024-01-15T05:57:00;26.73;;;11.65;;
79687;SDS011;69155;49.464;2.108;2024-01-15T06:12:52;27.38;;;11.27;;
79687;SDS011;69155;49.464;2.108;2024-01-15T07:05:52;30.17;;;13.68;;
79687;SDS011;69155;49.464;2.108;2024-01-15T07:08:51;23.45;;;11.38;;
79687;SDS011;69155;49.464;2.108;2024-01-15T07:11:27;24.55;;;11.55;;
79687;SDS011;69155;49.464;2.108;2024-01-15T07:14:22;24.23;;;9.63;;
79687;SDS011;69155;49.464;2.108;2024-01-15T07:16:50;24.23;;;9.93;;
79687;SDS011;69155;49.464;2.108;2024-01-15T07:22:27;15.30;;;8.50;;
79687;SDS011;69155;49.464;2.108;2024-01-15T07:34:37;24.27;;;9.75;;
79687;SDS011;69155;49.464;2.108;2024-01-15T07:43:44;18.90;;;8.35;;
79687;SDS011;69155;49.464;2.108;2024-01-15T07:46:18;15.63;;;7.35;;
79687;SDS011;69155;49.464;2.108;2024-01-15T07:49:02;19.30;;;9.33;;
79687;SDS011;69155;49.464;2.108;2024-01-15T07:57:47;19.10;;;9.43;;
79687;SDS011;69155;49.464;2.108;2024-01-15T08:09:54;13.52;;;6.80;;
79687;SDS011;69155;49.464;2.108;2024-01-15T08:12:50;20.25;;;7.72;;
79687;SDS011;69155;49.464;2.108;2024-01-15T08:19:15;17.35;;;9.18;;
79687;SDS011;69155;49.464;2.108;2024-01-15T08:21:23;24.42;;;8.70;;
79687;SDS011;69155;49.464;2.108;2024-01-15T08:24:20;16.08;;;7.80;;
79687;SDS011;69155;49.464;2.108;2024-01-15T08:27:26;16.58;;;8.13;;
79687;SDS011;69155;49.464;2.108;2024-01-15T08:30:15;21.73;;;8.02;;
79687;SDS011;69155;49.464;2.108;2024-01-15T08:33:16;17.83;;;7.40;;
79687;SDS011;69155;49.464;2.108;2024-01-15T08:39:27;15.32;;;8.05;;
79687;SDS011;69155;49.464;2.108;2024-01-15T08:51:20;9.07;;;4.97;;
79687;SDS011;69155;49.464;2.108;2024-01-15T08:54:37;14.25;;;5.90;;
79687;SDS011;69155;49.464;2.108;2024-01-15T08:57:12;15.65;;;5.20;;
79687;SDS011;69155;49.464;2.108;2024-01-15T09:00:19;11.65;;;4.72;;
79687;SDS011;69155;49.464;2.108;2024-01-15T09:02:52;9.82;;;4.47;;
79687;SDS011;69155;49.464;2.108;2024-01-15T09:08:37;18.25;;;4.38;;
79687;SDS011;69155;49.464;2.108;2024-01-15T09:20:20;6.78;;;3.20;;
79687;SDS011;69155;49.464;2.108;2024-01-15T09:29:04;8.75;;;3.25;;
79687;SDS011;69155;49.464;2.108;2024-01-15T09:31:57;5.20;;;2.70;;
79687;SDS011;69155;49.464;2.108;2024-01-15T09:34:53;4.28;;;2.90;;
79687;SDS011;69155;49.464;2.108;2024-01-15T09:37:35;4.07;;;2.22;;
79687;SDS011;69155;49.464;2.108;2024-01-15T09:40:12;6.18;;;2.60;;
79687;SDS011;69155;49.464;2.108;2024-01-15T09:42:50;9.38;;;2.70;;
79687;SDS011;69155;49.464;2.108;2024-01-15T09:45:28;2.58;;;2.00;;
79687;SDS011;69155;49.464;2.108;2024-01-15T09:54:36;2.95;;;1.80;;
79687;SDS011;69155;49.464;2.108;2024-01-15T10:09:32;2.15;;;1.48;;
79687;SDS011;69155;49.464;2.108;2024-01-15T10:18:31;6.60;;;1.88;;
79687;SDS011;69155;49.464;2.108;2024-01-15T10:21:21;2.47;;;1.80;;
79687;SDS011;69155;49.464;2.108;2024-01-15T10:24:02;3.83;;;1.60;;
79687;SDS011;69155;49.464;2.108;2024-01-15T10:26:52;2.92;;;1.55;;
79687;SDS011;69155;49.464;2.108;2024-01-15T10:35:20;6.65;;;1.50;;
79687;SDS011;69155;49.464;2.108;2024-01-15T10:37:52;3.35;;;1.23;;
79687;SDS011;69155;49.464;2.108;2024-01-15T10:43:46;2.42;;;1.30;;
79687;SDS011;69155;49.464;2.108;2024-01-15T10:46:27;1.47;;;1.30;;
79687;SDS011;69155;49.464;2.108;2024-01-15T10:49:22;4.55;;;1.58;;
79687;SDS011;69155;49.464;2.108;2024-01-15T10:52:12;1.10;;;0.90;;
79687;SDS011;69155;49.464;2.108;2024-01-15T10:54:47;3.08;;;1.15;;
79687;SDS011;69155;49.464;2.108;2024-01-15T10:57:31;1.10;;;1.00;;
79687;SDS011;69155;49.464;2.108;2024-01-15T11:03:08;1.65;;;1.13;;
79687;SDS011;69155;49.464;2.108;2024-01-15T11:05:48;2.20;;;1.27;;
79687;SDS011;69155;49.464;2.108;2024-01-15T11:08:41;1.35;;;1.00;;
79687;SDS011;69155;49.464;2.108;2024-01-15T11:34:56;4.53;;;3.25;;
79687;SDS011;69155;49.464;2.108;2024-01-15T11:40:46;3.22;;;1.02;;
79687;SDS011;69155;49.464;2.108;2024-01-15T11:43:29;8.77;;;3.42;;
79687;SDS011;69155;49.464;2.108;2024-01-15T11:46:10;4.30;;;1.85;;
79687;SDS011;69155;49.464;2.108;2024-01-15T11:51:39;3.25;;;1.45;;
79687;SDS011;69155;49.464;2.108;2024-01-15T11:54:36;1.52;;;1.40;;
79687;SDS011;69155;49.464;2.108;2024-01-15T11:57:21;2.80;;;1.63;;
79687;SDS011;69155;49.464;2.108;2024-01-15T12:06:09;3.40;;;2.00;;
79687;SDS011;69155;49.464;2.108;2024-01-15T12:08:49;3.17;;;1.42;;
79687;SDS011;69155;49.464;2.108;2024-01-15T12:11:15;2.35;;;1.38;;
79687;SDS011;69155;49.464;2.108;2024-01-15T12:16:41;1.17;;;1.13;;
79687;SDS011;69155;49.464;2.108;2024-01-15T12:19:08;2.30;;;1.33;;
79687;SDS011;69155;49.464;2.108;2024-01-15T12:21:39;1.58;;;1.48;;
79687;SDS011;69155;49.464;2.108;2024-01-15T12:27:30;4.28;;;2.10;;
79687;SDS011;69155;49.464;2.108;2024-01-15T12:30:40;7.43;;;2.47;;
79687;SDS011;69155;49.464;2.108;2024-01-15T12:33:21;7.07;;;1.92;;
79687;SDS011;69155;49.464;2.108;2024-01-15T12:35:58;4.15;;;2.33;;
79687;SDS011;69155;49.464;2.108;2024-01-15T12:38:23;8.03;;;3.07;;
79687;SDS011;69155;49.464;2.108;2024-01-15T12:40:49;7.22;;;1.65;;
79687;SDS011;69155;49.464;2.108;2024-01-15T12:43:20;7.32;;;1.95;;
79687;SDS011;69155;49.464;2.108;2024-01-15T14:11:15;2.88;;;1.40;;
79687;SDS011;69155;49.464;2.108;2024-01-15T14:29:25;1.00;;;0.77;;
79687;SDS011;69155;49.464;2.108;2024-01-15T14:31:52;1.77;;;0.60;;
79687;SDS011;69155;49.464;2.108;2024-01-15T14:34:17;1.17;;;0.75;;
79687;SDS011;69155;49.464;2.108;2024-01-15T14:36:43;0.80;;;0.80;;
79687;SDS011;69155;49.464;2.108;2024-01-15T14:39:08;0.60;;;0.60;;
79687;SDS011;69155;49.464;2.108;2024-01-15T14:41:34;3.15;;;0.90;;
79687;SDS011;69155;49.464;2.108;2024-01-15T14:44:02;3.43;;;0.90;;
79687;SDS011;69155;49.464;2.108;2024-01-15T14:46:31;1.02;;;0.65;;
79687;SDS011;69155;49.464;2.108;2024-01-15T14:48:56;4.13;;;0.93;;
79687;SDS011;69155;49.464;2.108;2024-01-15T14:51:27;3.22;;;1.02;;
79687;SDS011;69155;49.464;2.108;2024-01-15T14:53:52;1.60;;;0.90;;
79687;SDS011;69155;49.464;2.108;2024-01-15T14:56:17;2.57;;;1.30;;
79687;SDS011;69155;49.464;2.108;2024-01-15T14:58:42;2.10;;;1.17;;
79687;SDS011;69155;49.464;2.108;2024-01-15T15:01:08;0.97;;;0.90;;
79687;SDS011;69155;49.464;2.108;2024-01-15T15:03:33;1.35;;;0.77;;
79687;SDS011;69155;49.464;2.108;2024-01-15T15:06:02;5.33;;;1.10;;
79687;SDS011;69155;49.464;2.108;2024-01-15T15:08:27;4.47;;;1.42;;
79687;SDS011;69155;49.464;2.108;2024-01-15T15:10:52;1.67;;;1.30;;
79687;SDS011;69155;49.464;2.108;2024-01-15T15:13:18;6.78;;;1.10;;
79687;SDS011;69155;49.464;2.108;2024-01-15T15:15:43;4.43;;;1.00;;
79687;SDS011;69155;49.464;2.108;2024-01-15T15:18:09;1.45;;;0.95;;
79687;SDS011;69155;49.464;2.108;2024-01-15T15:20:34;0.83;;;0.80;;
79687;SDS011;69155;49.464;2.108;2024-01-15T15:22:59;1.70;;;1.00;;
79687;SDS011;69155;49.464;2.108;2024-01-15T15:25:24;0.50;;;0.50;;
79687;SDS011;69155;49.464;2.108;2024-01-15T15:27:49;0.57;;;0.47;;
79687;SDS011;69155;49.464;2.108;2024-01-15T15:30:15;1.97;;;1.20;;
79687;SDS011;69155;49.464;2.108;2024-01-15T15:32:40;23.93;;;10.27;;
79687;SDS011;69155;49.464;2.108;2024-01-15T15:35:05;14.90;;;6.70;;
79687;SDS011;69155;49.464;2.108;2024-01-15T15:37:34;8.25;;;3.97;;
79687;SDS011;69155;49.464;2.108;2024-01-15T15:39:59;3.97;;;1.92;;
79687;SDS011;69155;49.464;2.108;2024-01-15T15:42:24;6.80;;;3.57;;
79687;SDS011;69155;49.464;2.108;2024-01-15T15:44:49;5.57;;;2.70;;
79687;SDS011;69155;49.464;2.108;2024-01-15T15:47:18;7.13;;;3.85;;
79687;SDS011;69155;49.464;2.108;2024-01-15T15:49:43;25.35;;;12.50;;
79687;SDS011;69155;49.464;2.108;2024-01-15T15:52:11;13.50;;;6.33;;
79687;SDS011;69155;49.464;2.108;2024-01-15T15:54:37;5.78;;;2.80;;
79687;SDS011;69155;49.464;2.108;2024-01-15T15:57:02;5.85;;;2.55;;
79687;SDS011;69155;49.464;2.108;2024-01-15T15:59:28;5.60;;;3.42;;
79687;SDS011;69155;49.464;2.108;2024-01-15T16:01:53;3.40;;;2.40;;
79687;SDS011;69155;49.464;2.108;2024-01-15T16:04:19;4.30;;;2.03;;
79687;SDS011;69155;49.464;2.108;2024-01-15T16:06:44;6.43;;;2.03;;
79687;SDS011;69155;49.464;2.108;2024-01-15T16:09:14;4.70;;;2.83;;
79687;SDS011;69155;49.464;2.108;2024-01-15T16:11:40;10.02;;;4.25;;
79687;SDS011;69155;49.464;2.108;2024-01-15T16:14:05;4.38;;;2.70;;
79687;SDS011;69155;49.464;2.108;2024-01-15T16:16:31;9.47;;;2.60;;
79687;SDS011;69155;49.464;2.108;2024-01-15T16:18:56;3.60;;;1.90;;
79687;SDS011;69155;49.464;2.108;2024-01-15T16:21:22;4.77;;;2.80;;
79687;SDS011;69155;49.464;2.108;2024-01-15T16:23:47;5.73;;;2.00;;
79687;SDS011;69155;49.464;2.108;2024-01-15T16:26:12;5.70;;;2.47;;
79687;SDS011;69155;49.464;2.108;2024-01-15T16:28:38;6.67;;;2.73;;
79687;SDS011;69155;49.464;2.108;2024-01-15T16:31:06;12.65;;;3.75;;
79687;SDS011;69155;49.464;2.108;2024-01-15T16:33:31;5.13;;;2.57;;
79687;SDS011;69155;49.464;2.108;2024-01-15T16:35:56;9.57;;;3.70;;
79687;SDS011;69155;49.464;2.108;2024-01-15T16:38:22;8.75;;;3.78;;
79687;SDS011;69155;49.464;2.108;2024-01-15T16:40:47;7.20;;;3.47;;
79687;SDS011;69155;49.464;2.108;2024-01-15T16:43:13;5.43;;;3.23;;
79687;SDS011;69155;49.464;2.108;2024-01-15T16:45:38;13.90;;;3.73;;
79687;SDS011;69155;49.464;2.108;2024-01-15T16:48:03;13.97;;;5.77;;
79687;SDS011;69155;49.464;2.108;2024-01-15T16:50:31;28.85;;;7.68;;
79687;SDS011;69155;49.464;2.108;2024-01-15T16:52:57;16.17;;;5.90;;
79687;SDS011;69155;49.464;2.108;2024-01-15T16:55:22;24.15;;;7.57;;
79687;SDS011;69155;49.464;2.108;2024-01-15T16:57:47;31.87;;;11.40;;
79687;SDS011;69155;49.464;2.108;2024-01-15T17:00:13;37.20;;;12.07;;
79687;SDS011;69155;49.464;2.108;2024-01-15T17:02:38;32.53;;;11.43;;
79687;SDS011;69155;49.464;2.108;2024-01-15T17:05:03;27.75;;;10.55;;
79687;SDS011;69155;49.464;2.108;2024-01-15T17:07:29;31.33;;;11.00;;
79687;SDS011;69155;49.464;2.108;2024-01-15T17:09:54;27.20;;;11.53;;
79687;SDS011;69155;49.464;2.108;2024-01-15T17:12:19;24.07;;;9.33;;
79687;SDS011;69155;49.464;2.108;2024-01-15T17:14:45;20.85;;;8.43;;
79687;SDS011;69155;49.464;2.108;2024-01-15T17:17:11;21.67;;;6.37;;
79687;SDS011;69155;49.464;2.108;2024-01-15T17:19:38;11.73;;;6.00;;
79687;SDS011;69155;49.464;2.108;2024-01-15T17:22:03;15.47;;;5.73;;
79687;SDS011;69155;49.464;2.108;2024-01-15T17:24:28;9.37;;;4.87;;
79687;SDS011;69155;49.464;2.108;2024-01-15T17:26:54;6.33;;;3.93;;
79687;SDS011;69155;49.464;2.108;2024-01-15T17:29:19;13.23;;;4.33;;
79687;SDS011;69155;49.464;2.108;2024-01-15T17:31:45;6.55;;;3.65;;
79687;SDS011;69155;49.464;2.108;2024-01-15T17:34:11;9.10;;;3.58;;
79687;SDS011;69155;49.464;2.108;2024-01-15T17:36:36;5.90;;;3.17;;
79687;SDS011;69155;49.464;2.108;2024-01-15T17:39:01;3.73;;;2.60;;
79687;SDS011;69155;49.464;2.108;2024-01-15T17:41:27;8.73;;;3.10;;
79687;SDS011;69155;49.464;2.108;2024-01-15T17:43:52;6.57;;;3.20;;
79687;SDS011;69155;49.464;2.108;2024-01-15T17:46:20;7.37;;;3.17;;
79687;SDS011;69155;49.464;2.108;2024-01-15T17:48:48;6.65;;;3.38;;
79687;SDS011;69155;49.464;2.108;2024-01-15T17:51:17;22.53;;;8.57;;
79687;SDS011;69155;49.464;2.108;2024-01-15T17:53:43;30.05;;;10.00;;
79687;SDS011;69155;49.464;2.108;2024-01-15T17:56:11;48.97;;;16.47;;
79687;SDS011;69155;49.464;2.108;2024-01-15T17:58:36;53.42;;;16.50;;
79687;SDS011;69155;49.464;2.108;2024-01-15T18:01:01;33.97;;;12.20;;
79687;SDS011;69155;49.464;2.108;2024-01-15T18:03:27;21.52;;;6.57;;
79687;SDS011;69155;49.464;2.108;2024-01-15T18:05:56;9.32;;;4.25;;
79687;SDS011;69155;49.464;2.108;2024-01-15T18:08:21;8.82;;;3.08;;
79687;SDS011;69155;49.464;2.108;2024-01-15T18:10:46;10.30;;;3.67;;
79687;SDS011;69155;49.464;2.108;2024-01-15T18:13:14;6.70;;;2.87;;
79687;SDS011;69155;49.464;2.108;2024-01-15T18:15:39;7.05;;;3.28;;
79687;SDS011;69155;49.464;2.108;2024-01-15T18:18:05;5.80;;;2.90;;
79687;SDS011;69155;49.464;2.108;2024-01-15T18:20:31;7.97;;;3.20;;
79687;SDS011;69155;49.464;2.108;2024-01-15T18:22:56;12.03;;;3.37;;
79687;SDS011;69155;49.464;2.108;2024-01-15T18:25:21;7.70;;;3.20;;
79687;SDS011;69155;49.464;2.108;2024-01-15T18:27:46;12.47;;;3.63;;
79687;SDS011;69155;49.464;2.108;2024-01-15T18:30:12;6.80;;;3.13;;
79687;SDS011;69155;49.464;2.108;2024-01-15T18:32:44;9.05;;;4.28;;
79687;SDS011;69155;49.464;2.108;2024-01-15T18:35:09;7.80;;;3.35;;
79687;SDS011;69155;49.464;2.108;2024-01-15T18:37:34;8.30;;;3.20;;
79687;SDS011;69155;49.464;2.108;2024-01-15T18:39:59;9.20;;;4.20;;
79687;SDS011;69155;49.464;2.108;2024-01-15T18:42:25;7.23;;;3.60;;
79687;SDS011;69155;49.464;2.108;2024-01-15T18:47:26;11.07;;;3.63;;
79687;SDS011;69155;49.464;2.108;2024-01-15T18:49:51;8.23;;;3.80;;
79687;SDS011;69155;49.464;2.108;2024-01-15T18:52:25;7.75;;;3.78;;
79687;SDS011;69155;49.464;2.108;2024-01-15T18:55:08;6.30;;;2.88;;
79687;SDS011;69155;49.464;2.108;2024-01-15T18:57:38;4.80;;;3.10;;
79687;SDS011;69155;49.464;2.108;2024-01-15T19:00:04;6.28;;;3.45;;
79687;SDS011;69155;49.464;2.108;2024-01-15T19:02:37;5.68;;;3.42;;
79687;SDS011;69155;49.464;2.108;2024-01-15T19:05:02;8.17;;;3.53;;
79687;SDS011;69155;49.464;2.108;2024-01-15T19:07:30;5.87;;;3.20;;
79687;SDS011;69155;49.464;2.108;2024-01-15T19:09:58;13.57;;;4.50;;
79687;SDS011;69155;49.464;2.108;2024-01-15T19:12:23;8.33;;;4.90;;
79687;SDS011;69155;49.464;2.108;2024-01-15T19:14:51;10.90;;;4.33;;
79687;SDS011;69155;49.464;2.108;2024-01-15T19:17:17;12.15;;;4.60;;
79687;SDS011;69155;49.464;2.108;2024-01-15T19:19:42;7.53;;;3.97;;
79687;SDS011;69155;49.464;2.108;2024-01-15T19:22:08;9.90;;;4.32;;
79687;SDS011;69155;49.464;2.108;2024-01-15T19:24:36;10.73;;;4.90;;
79687;SDS011;69155;49.464;2.108;2024-01-15T19:27:03;13.07;;;5.53;;
79687;SDS011;69155;49.464;2.108;2024-01-15T19:29:29;9.60;;;4.90;;
79687;SDS011;69155;49.464;2.108;2024-01-15T19:31:54;8.93;;;5.13;;
79687;SDS011;69155;49.464;2.108;2024-01-15T19:34:19;6.80;;;4.23;;
79687;SDS011;69155;49.464;2.108;2024-01-15T19:36:44;11.00;;;5.97;;
79687;SDS011;69155;49.464;2.108;2024-01-15T19:39:10;10.30;;;6.50;;
79687;SDS011;69155;49.464;2.108;2024-01-15T19:41:35;17.17;;;7.60;;
79687;SDS011;69155;49.464;2.108;2024-01-15T19:44:00;30.93;;;14.53;;
79687;SDS011;69155;49.464;2.108;2024-01-15T19:46:25;39.57;;;21.63;;
79687;SDS011;69155;49.464;2.108;2024-01-15T19:48:57;63.60;;;28.23;;
79687;SDS011;69155;49.464;2.108;2024-01-15T19:53:50;45.42;;;21.90;;
79687;SDS011;69155;49.464;2.108;2024-01-15T19:56:15;27.87;;;12.43;;
79687;SDS011;69155;49.464;2.108;2024-01-15T19:58:43;34.20;;;12.13;;
79687;SDS011;69155;49.464;2.108;2024-01-15T20:01:08;33.88;;;13.95;;
79687;SDS011;69155;49.464;2.108;2024-01-15T20:03:33;32.90;;;13.80;;
79687;SDS011;69155;49.464;2.108;2024-01-15T20:05:58;27.03;;;12.67;;
79687;SDS011;69155;49.464;2.108;2024-01-15T20:08:24;24.53;;;10.20;;
79687;SDS011;69155;49.464;2.108;2024-01-15T20:10:49;26.03;;;11.03;;
79687;SDS011;69155;49.464;2.108;2024-01-15T20:13:14;20.27;;;9.20;;
79687;SDS011;69155;49.464;2.108;2024-01-15T20:15:39;20.93;;;9.10;;
79687;SDS011;69155;49.464;2.108;2024-01-15T20:18:05;14.40;;;7.03;;
79687;SDS011;69155;49.464;2.108;2024-01-15T20:20:31;12.35;;;6.28;;
79687;SDS011;69155;49.464;2.108;2024-01-15T20:22:56;13.10;;;7.27;;
79687;SDS011;69155;49.464;2.108;2024-01-15T20:25:25;16.58;;;7.03;;
79687;SDS011;69155;49.464;2.108;2024-01-15T20:27:51;11.57;;;6.53;;
79687;SDS011;69155;49.464;2.108;2024-01-15T20:30:16;13.83;;;6.70;;
79687;SDS011;69155;49.464;2.108;2024-01-15T20:32:42;16.10;;;7.78;;
79687;SDS011;69155;49.464;2.108;2024-01-15T20:35:07;12.50;;;6.80;;
79687;SDS011;69155;49.464;2.108;2024-01-15T20:37:32;20.27;;;8.23;;
79687;SDS011;69155;49.464;2.108;2024-01-15T20:39:58;11.57;;;7.53;;
79687;SDS011;69155;49.464;2.108;2024-01-15T20:42:24;14.32;;;8.88;;
79687;SDS011;69155;49.464;2.108;2024-01-15T20:44:49;20.13;;;8.52;;
79687;SDS011;69155;49.464;2.108;2024-01-15T20:47:14;9.97;;;6.50;;
79687;SDS011;69155;49.464;2.108;2024-01-15T20:49:39;14.07;;;6.27;;
79687;SDS011;69155;49.464;2.108;2024-01-15T20:52:05;16.07;;;8.23;;
79687;SDS011;69155;49.464;2.108;2024-01-15T20:54:30;24.50;;;8.20;;
79687;SDS011;69155;49.464;2.108;2024-01-15T20:56:55;20.37;;;8.63;;
79687;SDS011;69155;49.464;2.108;2024-01-15T20:59:21;18.27;;;7.60;;
79687;SDS011;69155;49.464;2.108;2024-01-15T21:01:46;16.17;;;8.23;;
79687;SDS011;69155;49.464;2.108;2024-01-15T21:04:12;34.10;;;12.27;;
79687;SDS011;69155;49.464;2.108;2024-01-15T21:06:37;31.98;;;13.38;;
79687;SDS011;69155;49.464;2.108;2024-01-15T21:09:03;26.58;;;10.57;;
79687;SDS011;69155;49.464;2.108;2024-01-15T21:11:28;21.73;;;11.27;;
79687;SDS011;69155;49.464;2.108;2024-01-15T21:13:53;31.98;;;10.70;;
79687;SDS011;69155;49.464;2.108;2024-01-15T21:16:19;26.53;;;12.27;;
79687;SDS011;69155;49.464;2.108;2024-01-15T21:18:44;28.42;;;12.35;;
79687;SDS011;69155;49.464;2.108;2024-01-15T21:21:10;41.53;;;16.57;;
79687;SDS011;69155;49.464;2.108;2024-01-15T21:23:35;43.63;;;19.00;;
79687;SDS011;69155;49.464;2.108;2024-01-15T21:26:00;39.13;;;15.53;;
79687;SDS011;69155;49.464;2.108;2024-01-15T21:28:26;38.33;;;14.55;;
79687;SDS011;69155;49.464;2.108;2024-01-15T21:30:54;28.30;;;10.90;;
79687;SDS011;69155;49.464;2.108;2024-01-15T21:33:20;24.43;;;10.27;;
79687;SDS011;69155;49.464;2.108;2024-01-15T21:35:45;27.37;;;10.57;;
79687;SDS011;69155;49.464;2.108;2024-01-15T21:38:10;28.57;;;9.97;;
79687;SDS011;69155;49.464;2.108;2024-01-15T21:40:35;18.30;;;8.53;;
79687;SDS011;69155;49.464;2.108;2024-01-15T21:43:01;17.60;;;8.90;;
79687;SDS011;69155;49.464;2.108;2024-01-15T21:45:26;25.53;;;9.33;;
79687;SDS011;69155;49.464;2.108;2024-01-15T21:47:52;13.20;;;7.50;;
79687;SDS011;69155;49.464;2.108;2024-01-15T21:50:17;14.05;;;7.95;;
79687;SDS011;69155;49.464;2.108;2024-01-15T21:52:43;18.87;;;8.97;;
79687;SDS011;69155;49.464;2.108;2024-01-15T21:55:08;12.60;;;7.67;;
79687;SDS011;69155;49.464;2.108;2024-01-15T21:57:34;18.58;;;6.15;;
79687;SDS011;69155;49.464;2.108;2024-01-15T21:59:59;11.50;;;6.03;;
79687;SDS011;69155;49.464;2.108;2024-01-15T22:02:27;7.38;;;4.65;;
79687;SDS011;69155;49.464;2.108;2024-01-15T22:04:57;7.88;;;4.38;;
79687;SDS011;69155;49.464;2.108;2024-01-15T22:07:23;11.13;;;5.50;;
79687;SDS011;69155;49.464;2.108;2024-01-15T22:09:51;16.67;;;7.00;;
79687;SDS011;69155;49.464;2.108;2024-01-15T22:12:16;19.13;;;6.53;;
79687;SDS011;69155;49.464;2.108;2024-01-15T22:14:41;12.70;;;6.37;;
79687;SDS011;69155;49.464;2.108;2024-01-15T22:17:06;17.67;;;7.37;;
79687;SDS011;69155;49.464;2.108;2024-01-15T22:19:31;32.73;;;11.23;;
79687;SDS011;69155;49.464;2.108;2024-01-15T22:21:58;15.88;;;8.40;;
79687;SDS011;69155;49.464;2.108;2024-01-15T22:24:24;17.80;;;8.90;;
79687;SDS011;69155;49.464;2.108;2024-01-15T22:26:51;17.20;;;8.88;;
79687;SDS011;69155;49.464;2.108;2024-01-15T22:29:18;14.18;;;8.30;;
79687;SDS011;69155;49.464;2.108;2024-01-15T22:31:43;14.37;;;8.10;;
79687;SDS011;69155;49.464;2.108;2024-01-15T22:34:08;23.47;;;7.63;;
79687;SDS011;69155;49.464;2.108;2024-01-15T22:36:33;15.93;;;7.83;;
79687;SDS011;69155;49.464;2.108;2024-01-15T22:38:59;15.20;;;8.03;;
79687;SDS011;69155;49.464;2.108;2024-01-15T22:41:25;14.18;;;6.65;;
79687;SDS011;69155;49.464;2.108;2024-01-15T22:43:50;10.83;;;6.03;;
79687;SDS011;69155;49.464;2.108;2024-01-15T22:46:15;13.57;;;6.10;;
79687;SDS011;69155;49.464;2.108;2024-01-15T22:48:41;10.77;;;7.10;;
79687;SDS011;69155;49.464;2.108;2024-01-15T22:51:06;16.33;;;6.97;;
79687;SDS011;69155;49.464;2.108;2024-01-15T22:53:32;14.00;;;7.95;;
79687;SDS011;69155;49.464;2.108;2024-01-15T22:55:57;16.20;;;7.85;;
79687;SDS011;69155;49.464;2.108;2024-01-15T22:58:29;15.93;;;8.68;;
79687;SDS011;69155;49.464;2.108;2024-01-15T23:00:54;18.98;;;7.80;;
79687;SDS011;69155;49.464;2.108;2024-01-15T23:03:19;21.33;;;8.30;;
79687;SDS011;69155;49.464;2.108;2024-01-15T23:05:44;16.17;;;7.60;;
79687;SDS011;69155;49.464;2.108;2024-01-15T23:08:10;18.73;;;9.03;;
79687;SDS011;69155;49.464;2.108;2024-01-15T23:10:35;12.67;;;7.83;;
79687;SDS011;69155;49.464;2.108;2024-01-15T23:13:00;18.53;;;8.27;;
79687;SDS011;69155;49.464;2.108;2024-01-15T23:15:25;35.93;;;14.00;;
79687;SDS011;69155;49.464;2.108;2024-01-15T23:17:53;32.83;;;12.93;;
79687;SDS011;69155;49.464;2.108;2024-01-15T23:20:21;77.47;;;25.95;;
79687;SDS011;69155;49.464;2.108;2024-01-15T23:22:46;68.63;;;26.23;;
79687;SDS011;69155;49.464;2.108;2024-01-15T23:25:11;74.07;;;28.60;;
79687;SDS011;69155;49.464;2.108;2024-01-15T23:27:37;83.73;;;30.47;;
79687;SDS011;69155;49.464;2.108;2024-01-15T23:30:03;50.47;;;20.23;;
79687;SDS011;69155;49.464;2.108;2024-01-15T23:32:29;54.83;;;21.15;;
79687;SDS011;69155;49.464;2.108;2024-01-15T23:34:56;44.70;;;17.38;;
79687;SDS011;69155;49.464;2.108;2024-01-15T23:37:21;35.27;;;15.37;;
79687;SDS011;69155;49.464;2.108;2024-01-15T23:39:46;37.43;;;14.77;;
79687;SDS011;69155;49.464;2.108;2024-01-15T23:42:11;35.60;;;14.47;;
79687;SDS011;69155;49.464;2.108;2024-01-15T23:44:37;26.03;;;11.70;;
79687;SDS011;69155;49.464;2.108;2024-01-15T23:47:02;21.33;;;10.35;;
79687;SDS011;69155;49.464;2.108;2024-01-15T23:49:28;20.52;;;9.27;;
79687;SDS011;69155;49.464;2.108;2024-01-15T23:51:53;25.80;;;11.40;;
79687;SDS011;69155;49.464;2.108;2024-01-15T23:54:21;17.10;;;8.50;;
79687;SDS011;69155;49.464;2.108;2024-01-15T23:56:47;18.92;;;10.02;;
79687;SDS011;69155;49.464;2.108;2024-01-15T23:59:13;19.83;;;9.88;;
